createdAt,value
2018-05-06T00:00:25.945Z,13.69
2018-05-06T00:01:26.155Z,13.71
2018-05-06T00:02:29.035Z,13.71
2018-05-06T00:03:26.594Z,13.62
2018-05-06T00:04:26.809Z,13.67
2018-05-06T00:05:27.023Z,13.56
2018-05-06T00:06:27.233Z,13.58
2018-05-06T00:07:27.451Z,13.51
2018-05-06T00:08:27.700Z,13.56
2018-05-06T00:09:27.961Z,13.58
2018-05-06T00:10:28.102Z,13.49
2018-05-06T00:11:28.315Z,13.52
2018-05-06T00:12:28.556Z,13.41
2018-05-06T00:13:28.756Z,13.46
2018-05-06T00:14:28.960Z,13.44
2018-05-06T00:15:29.168Z,13.38
2018-05-06T00:16:29.392Z,13.32
2018-05-06T00:17:31.496Z,13.29
2018-05-06T00:18:29.829Z,13.33
2018-05-06T00:19:30.052Z,13.22
2018-05-06T00:20:30.263Z,13.24
2018-05-06T00:21:30.487Z,13.15
2018-05-06T00:22:30.704Z,13.21
2018-05-06T00:23:33.508Z,13.32
2018-05-06T00:24:31.096Z,13.22
2018-05-06T00:25:31.309Z,13.14
2018-05-06T00:26:33.499Z,13.09
2018-05-06T00:27:31.705Z,13.15
2018-05-06T00:28:31.920Z,13.07
2018-05-06T00:29:32.146Z,13.06
2018-05-06T00:30:32.349Z,12.97
2018-05-06T00:31:34.500Z,13.09
2018-05-06T00:32:32.719Z,13.04
2018-05-06T00:33:32.971Z,13.03
2018-05-06T00:34:33.141Z,13.04
2018-05-06T00:35:33.361Z,12.97
2018-05-06T00:36:33.571Z,13.00
2018-05-06T00:37:35.501Z,12.97
2018-05-06T00:38:33.965Z,13.03
2018-05-06T00:39:34.171Z,12.96
2018-05-06T00:40:34.394Z,13.11
2018-05-06T00:41:36.501Z,12.99
2018-05-06T00:42:34.836Z,12.97
2018-05-06T00:43:35.066Z,12.95
2018-05-06T00:44:35.277Z,12.92
2018-05-06T00:45:35.479Z,12.95
2018-05-06T00:46:35.695Z,12.85
2018-05-06T00:47:35.902Z,12.85
2018-05-06T00:48:36.118Z,12.81
2018-05-06T00:49:36.321Z,12.88
2018-05-06T00:50:36.538Z,12.87
2018-05-06T00:51:36.754Z,12.81
2018-05-06T00:52:36.963Z,12.81
2018-05-06T00:53:37.166Z,12.75
2018-05-06T00:54:37.388Z,12.74
2018-05-06T00:55:37.590Z,12.79
2018-05-06T00:56:37.799Z,12.78
2018-05-06T00:57:38.018Z,12.79
2018-05-06T00:58:38.222Z,12.69
2018-05-06T00:59:38.433Z,12.63
2018-05-06T01:00:40.496Z,12.60
2018-05-06T01:01:38.833Z,12.52
2018-05-06T01:02:40.998Z,12.59
2018-05-06T01:03:39.243Z,12.54
2018-05-06T01:04:39.451Z,12.56
2018-05-06T01:05:39.648Z,12.49
2018-05-06T01:06:43.502Z,12.46
2018-05-06T01:07:44.083Z,12.48
2018-05-06T01:08:41.992Z,12.49
2018-05-06T01:09:40.452Z,12.52
2018-05-06T01:10:42.507Z,12.41
2018-05-06T01:11:40.837Z,12.45
2018-05-06T01:12:41.039Z,12.56
2018-05-06T01:13:41.255Z,12.51
2018-05-06T01:14:41.460Z,12.48
2018-05-06T01:15:41.682Z,12.38
2018-05-06T01:16:41.892Z,12.38
2018-05-06T01:17:42.100Z,12.41
2018-05-06T01:18:42.314Z,12.42
2018-05-06T01:19:44.495Z,12.26
2018-05-06T01:20:42.705Z,12.27
2018-05-06T01:21:42.923Z,12.34
2018-05-06T01:22:43.133Z,12.23
2018-05-06T01:23:43.346Z,12.30
2018-05-06T01:24:43.559Z,12.24
2018-05-06T01:25:43.798Z,12.24
2018-05-06T01:26:45.512Z,12.26
2018-05-06T01:27:44.108Z,12.20
2018-05-06T01:28:45.997Z,12.09
2018-05-06T01:29:44.455Z,12.23
2018-05-06T01:30:44.675Z,12.15
2018-05-06T01:31:44.884Z,12.04
2018-05-06T01:32:45.099Z,12.11
2018-05-06T01:33:45.313Z,11.97
2018-05-06T01:34:45.520Z,11.93
2018-05-06T01:35:45.731Z,12.01
2018-05-06T01:36:45.932Z,11.89
2018-05-06T01:37:46.140Z,11.86
2018-05-06T01:38:46.352Z,11.78
2018-05-06T01:39:46.570Z,11.62
2018-05-06T01:40:48.494Z,11.54
2018-05-06T01:41:46.969Z,11.56
2018-05-06T01:42:49.002Z,11.44
2018-05-06T01:43:47.350Z,11.46
2018-05-06T01:44:47.560Z,11.36
2018-05-06T01:45:47.792Z,11.34
2018-05-06T01:46:47.988Z,11.25
2018-05-06T01:47:48.194Z,11.19
2018-05-06T01:48:49.998Z,11.10
2018-05-06T01:49:48.569Z,11.09
2018-05-06T01:50:48.774Z,11.03
2018-05-06T01:51:50.495Z,11.03
2018-05-06T01:52:49.201Z,11.02
2018-05-06T01:53:49.419Z,10.98
2018-05-06T01:54:49.632Z,10.84
2018-05-06T01:55:49.838Z,10.81
2018-05-06T01:56:50.042Z,10.89
2018-05-06T01:57:50.267Z,10.68
2018-05-06T01:58:50.478Z,10.66
2018-05-06T01:59:50.686Z,10.53
2018-05-06T02:00:50.912Z,10.46
2018-05-06T02:01:54.996Z,10.46
2018-05-06T02:02:51.341Z,10.43
2018-05-06T02:03:51.560Z,10.58
2018-05-06T02:04:51.766Z,10.58
2018-05-06T02:05:52.033Z,10.59
2018-05-06T02:06:54.010Z,10.68
2018-05-06T02:07:52.350Z,10.68
2018-05-06T02:08:52.556Z,10.77
2018-05-06T02:09:52.770Z,10.65
2018-05-06T02:10:52.989Z,10.60
2018-05-06T02:11:53.199Z,10.58
2018-05-06T02:12:53.459Z,10.46
2018-05-06T02:13:53.639Z,10.53
2018-05-06T02:14:53.878Z,10.58
2018-05-06T02:15:54.093Z,10.53
2018-05-06T02:16:54.197Z,10.42
2018-05-06T02:17:54.408Z,10.51
2018-05-06T02:18:54.633Z,10.44
2018-05-06T02:19:54.846Z,10.46
2018-05-06T02:20:55.057Z,10.39
2018-05-06T02:21:55.269Z,10.39
2018-05-06T02:22:55.476Z,10.39
2018-05-06T02:23:55.683Z,10.30
2018-05-06T02:24:55.906Z,10.32
2018-05-06T02:25:56.111Z,10.18
2018-05-06T02:26:56.321Z,10.18
2018-05-06T02:27:56.535Z,10.14
2018-05-06T02:28:56.746Z,10.01
2018-05-06T02:29:56.964Z,10.06
2018-05-06T02:30:57.186Z,9.99
2018-05-06T02:31:57.392Z,9.96
2018-05-06T02:32:57.598Z,9.99
2018-05-06T02:33:57.810Z,9.91
2018-05-06T02:34:58.023Z,9.94
2018-05-06T02:35:58.253Z,9.96
2018-05-06T02:36:58.467Z,9.93
2018-05-06T02:37:58.687Z,9.89
2018-05-06T02:38:58.906Z,9.88
2018-05-06T02:39:59.120Z,9.93
2018-05-06T02:41:00.998Z,9.93
2018-05-06T02:41:59.451Z,9.82
2018-05-06T02:42:59.658Z,9.78
2018-05-06T02:43:59.874Z,9.75
2018-05-06T02:45:00.091Z,9.71
2018-05-06T02:46:00.291Z,9.63
2018-05-06T02:47:00.502Z,9.71
2018-05-06T02:48:00.712Z,9.57
2018-05-06T02:49:00.925Z,9.67
2018-05-06T02:50:01.139Z,9.56
2018-05-06T02:51:01.346Z,9.93
2018-05-06T02:52:03.538Z,10.03
2018-05-06T02:53:01.721Z,10.04
2018-05-06T02:54:03.498Z,10.22
2018-05-06T02:55:04.005Z,10.36
2018-05-06T02:56:02.203Z,10.43
2018-05-06T02:57:05.013Z,10.53
2018-05-06T02:58:02.594Z,10.58
2018-05-06T02:59:02.795Z,10.71
2018-05-06T03:00:03.023Z,10.76
2018-05-06T03:01:03.219Z,10.73
2018-05-06T03:02:05.014Z,10.94
2018-05-06T03:03:05.499Z,10.89
2018-05-06T03:04:03.701Z,11.03
2018-05-06T03:05:05.513Z,10.99
2018-05-06T03:06:04.115Z,11.10
2018-05-06T03:07:04.322Z,11.17
2018-05-06T03:08:04.548Z,11.19
2018-05-06T03:09:04.773Z,11.13
2018-05-06T03:10:04.970Z,11.13
2018-05-06T03:11:05.190Z,11.06
2018-05-06T03:12:05.389Z,11.11
2018-05-06T03:13:05.598Z,11.06
2018-05-06T03:14:07.506Z,11.07
2018-05-06T03:15:07.497Z,11.17
2018-05-06T03:16:06.076Z,11.21
2018-05-06T03:17:06.288Z,11.17
2018-05-06T03:18:06.526Z,11.13
2018-05-06T03:19:08.503Z,10.89
2018-05-06T03:20:06.978Z,10.98
2018-05-06T03:21:07.181Z,10.89
2018-05-06T03:22:07.397Z,10.73
2018-05-06T03:23:07.607Z,10.68
2018-05-06T03:24:07.871Z,10.65
2018-05-06T03:25:10.022Z,10.59
2018-05-06T03:26:08.250Z,10.56
2018-05-06T03:27:08.485Z,10.60
2018-05-06T03:28:08.708Z,10.73
2018-05-06T03:29:08.911Z,10.88
2018-05-06T03:30:13.013Z,10.95
2018-05-06T03:31:09.347Z,11.06
2018-05-06T03:32:09.551Z,11.10
2018-05-06T03:33:09.760Z,11.10
2018-05-06T03:34:09.970Z,10.98
2018-05-06T03:35:12.000Z,10.98
2018-05-06T03:36:10.344Z,10.92
2018-05-06T03:37:10.549Z,10.94
2018-05-06T03:38:10.770Z,10.91
2018-05-06T03:39:11.003Z,10.91
2018-05-06T03:40:11.213Z,10.91
2018-05-06T03:41:11.421Z,10.76
2018-05-06T03:42:11.643Z,10.62
2018-05-06T03:43:11.846Z,10.46
2018-05-06T03:44:12.061Z,10.51
2018-05-06T03:45:12.272Z,10.25
2018-05-06T03:46:12.478Z,10.06
2018-05-06T03:47:14.494Z,10.06
2018-05-06T03:48:12.834Z,10.09
2018-05-06T03:49:14.999Z,10.30
2018-05-06T03:50:15.008Z,10.42
2018-05-06T03:51:13.350Z,10.47
2018-05-06T03:52:13.555Z,10.51
2018-05-06T03:53:15.502Z,10.53
2018-05-06T03:54:13.972Z,10.53
2018-05-06T03:55:14.191Z,10.63
2018-05-06T03:56:16.005Z,10.70
2018-05-06T03:57:16.496Z,10.71
2018-05-06T03:58:14.720Z,10.88
2018-05-06T03:59:14.925Z,10.84
2018-05-06T04:00:16.999Z,10.92
2018-05-06T04:01:18.000Z,10.88
2018-05-06T04:02:15.457Z,10.84
2018-05-06T04:03:15.667Z,10.88
2018-05-06T04:04:15.885Z,10.94
2018-05-06T04:05:16.095Z,10.76
2018-05-06T04:06:16.312Z,10.70
2018-05-06T04:07:16.522Z,10.42
2018-05-06T04:08:16.743Z,10.14
2018-05-06T04:09:16.974Z,9.91
2018-05-06T04:10:17.169Z,9.64
2018-05-06T04:11:17.387Z,9.42
2018-05-06T04:12:17.605Z,9.39
2018-05-06T04:13:19.514Z,9.27
2018-05-06T04:14:17.984Z,9.25
2018-05-06T04:15:18.205Z,9.23
2018-05-06T04:16:18.415Z,9.13
2018-05-06T04:17:18.640Z,9.18
2018-05-06T04:18:18.842Z,9.45
2018-05-06T04:19:19.096Z,9.67
2018-05-06T04:20:19.270Z,10.01
2018-05-06T04:21:19.539Z,10.26
2018-05-06T04:22:19.696Z,10.59
2018-05-06T04:23:19.908Z,10.73
2018-05-06T04:24:20.123Z,10.88
2018-05-06T04:25:20.339Z,10.94
2018-05-06T04:26:22.500Z,11.03
2018-05-06T04:27:20.717Z,11.19
2018-05-06T04:28:20.945Z,11.31
2018-05-06T04:29:21.186Z,11.14
2018-05-06T04:30:22.998Z,11.01
2018-05-06T04:31:21.614Z,10.84
2018-05-06T04:32:23.230Z,10.71
2018-05-06T04:33:21.967Z,10.51
2018-05-06T04:34:22.174Z,10.55
2018-05-06T04:35:22.389Z,10.43
2018-05-06T04:36:22.631Z,10.46
2018-05-06T04:37:22.735Z,10.26
2018-05-06T04:38:22.944Z,10.09
2018-05-06T04:39:23.158Z,9.86
2018-05-06T04:40:24.999Z,9.81
2018-05-06T04:41:23.665Z,9.66
2018-05-06T04:42:23.797Z,9.56
2018-05-06T04:43:24.020Z,9.48
2018-05-06T04:44:24.244Z,9.34
2018-05-06T04:45:24.425Z,9.32
2018-05-06T04:46:24.643Z,9.25
2018-05-06T04:47:24.865Z,9.25
2018-05-06T04:48:25.062Z,9.35
2018-05-06T04:49:25.299Z,9.16
2018-05-06T04:50:25.483Z,9.10
2018-05-06T04:51:25.713Z,9.10
2018-05-06T04:52:27.497Z,9.09
2018-05-06T04:53:26.107Z,9.15
2018-05-06T04:54:26.297Z,9.12
2018-05-06T04:55:26.501Z,9.32
2018-05-06T04:56:26.699Z,9.31
2018-05-06T04:57:26.931Z,9.39
2018-05-06T04:58:27.131Z,9.43
2018-05-06T04:59:27.339Z,9.60
2018-05-06T05:00:27.554Z,9.76
2018-05-06T05:01:27.779Z,9.96
2018-05-06T05:02:27.975Z,9.97
2018-05-06T05:03:28.196Z,10.18
2018-05-06T05:04:28.441Z,10.36
2018-05-06T05:05:28.629Z,10.37
2018-05-06T05:06:32.500Z,10.55
2018-05-06T05:07:28.951Z,10.44
2018-05-06T05:08:29.172Z,10.37
2018-05-06T05:09:29.394Z,10.56
2018-05-06T05:10:32.503Z,10.40
2018-05-06T05:11:29.714Z,10.34
2018-05-06T05:12:29.920Z,10.44
2018-05-06T05:13:30.145Z,10.55
2018-05-06T05:14:30.356Z,10.65
2018-05-06T05:15:34.508Z,10.76
2018-05-06T05:16:32.504Z,10.94
2018-05-06T05:17:30.857Z,11.02
2018-05-06T05:18:31.075Z,11.35
2018-05-06T05:19:31.299Z,11.68
2018-05-06T05:20:31.510Z,11.72
2018-05-06T05:21:31.721Z,11.70
2018-05-06T05:22:31.942Z,11.99
2018-05-06T05:23:32.160Z,12.21
2018-05-06T05:24:32.367Z,12.30
2018-05-06T05:25:32.583Z,12.88
2018-05-06T05:26:32.797Z,13.18
2018-05-06T05:27:35.501Z,13.18
2018-05-06T05:28:33.225Z,13.40
2018-05-06T05:29:33.425Z,13.79
2018-05-06T05:30:33.631Z,14.10
2018-05-06T05:31:33.858Z,14.42
2018-05-06T05:32:34.069Z,15.03
2018-05-06T05:33:34.286Z,15.46
2018-05-06T05:34:34.557Z,15.79
2018-05-06T05:35:34.709Z,16.11
2018-05-06T05:36:34.948Z,16.34
2018-05-06T05:37:35.037Z,16.78
2018-05-06T05:38:35.255Z,17.14
2018-05-06T05:39:35.470Z,17.23
2018-05-06T05:40:35.683Z,17.17
2018-05-06T05:41:35.902Z,17.47
2018-05-06T05:42:36.114Z,17.78
2018-05-06T05:43:36.321Z,17.99
2018-05-06T05:44:36.546Z,18.25
2018-05-06T05:45:44.503Z,18.29
2018-05-06T05:46:36.965Z,18.55
2018-05-06T05:47:37.198Z,18.92
2018-05-06T05:48:37.396Z,19.14
2018-05-06T05:49:37.615Z,19.46
2018-05-06T05:50:39.500Z,19.86
2018-05-06T05:51:37.967Z,20.09
2018-05-06T05:52:38.180Z,20.31
2018-05-06T05:53:38.460Z,20.12
2018-05-06T05:54:38.612Z,20.49
2018-05-06T05:55:38.846Z,20.23
2018-05-06T05:56:39.044Z,20.46
2018-05-06T05:57:39.254Z,20.08
2018-05-06T05:58:39.475Z,20.15
2018-05-06T05:59:39.684Z,20.41
2018-05-06T06:00:39.912Z,20.42
2018-05-06T06:01:40.130Z,20.54
2018-05-06T06:02:42.006Z,20.77
2018-05-06T06:03:40.475Z,20.50
2018-05-06T06:04:40.691Z,20.02
2018-05-06T06:05:40.915Z,19.87
2018-05-06T06:06:43.002Z,19.29
2018-05-06T06:07:41.348Z,18.90
2018-05-06T06:08:41.567Z,18.97
2018-05-06T06:09:41.840Z,19.11
2018-05-06T06:10:41.997Z,19.51
2018-05-06T06:11:42.219Z,18.94
2018-05-06T06:12:42.431Z,19.01
2018-05-06T06:13:44.512Z,19.47
2018-05-06T06:14:42.855Z,19.15
2018-05-06T06:15:43.069Z,19.47
2018-05-06T06:16:43.285Z,19.88
2018-05-06T06:17:43.517Z,19.24
2018-05-06T06:18:43.728Z,19.50
2018-05-06T06:19:43.941Z,19.87
2018-05-06T06:20:44.169Z,20.16
2018-05-06T06:21:44.391Z,20.62
2018-05-06T06:22:44.631Z,20.77
2018-05-06T06:23:46.504Z,21.24
2018-05-06T06:24:44.980Z,20.62
2018-05-06T06:25:45.209Z,20.13
2018-05-06T06:26:45.423Z,20.76
2018-05-06T06:27:47.534Z,19.97
2018-05-06T06:28:45.888Z,19.76
2018-05-06T06:29:46.101Z,19.73
2018-05-06T06:30:46.333Z,20.49
2018-05-06T06:31:46.543Z,20.76
2018-05-06T06:32:46.757Z,21.74
2018-05-06T06:33:49.509Z,21.78
2018-05-06T06:34:47.113Z,21.05
2018-05-06T06:35:49.025Z,20.53
2018-05-06T06:36:49.008Z,20.53
2018-05-06T06:37:49.545Z,19.60
2018-05-06T06:38:47.920Z,19.60
2018-05-06T06:39:52.015Z,20.09
2018-05-06T06:40:48.363Z,19.63
2018-05-06T06:41:48.618Z,19.54
2018-05-06T06:42:49.813Z,19.87
2018-05-06T06:43:49.051Z,20.09
2018-05-06T06:44:49.300Z,19.91
2018-05-06T06:45:51.008Z,20.16
2018-05-06T06:46:49.633Z,20.12
2018-05-06T06:47:50.844Z,19.70
2018-05-06T06:48:50.082Z,19.70
2018-05-06T06:49:50.299Z,19.66
2018-05-06T06:50:50.511Z,19.65
2018-05-06T06:51:50.731Z,19.61
2018-05-06T06:52:50.963Z,20.33
2018-05-06T06:53:51.184Z,20.83
2018-05-06T06:54:51.426Z,20.24
2018-05-06T06:55:54.520Z,20.15
2018-05-06T06:56:51.886Z,19.57
2018-05-06T06:57:51.998Z,20.25
2018-05-06T06:58:54.039Z,20.86
2018-05-06T06:59:53.459Z,21.74
2018-05-06T07:00:52.568Z,21.44
2018-05-06T07:01:54.530Z,21.27
2018-05-06T07:02:56.883Z,21.95
2018-05-06T07:03:53.225Z,21.72
2018-05-06T07:04:55.009Z,21.20
2018-05-06T07:05:56.568Z,20.28
2018-05-06T07:06:53.786Z,20.09
2018-05-06T07:07:59.514Z,20.98
2018-05-06T07:08:54.218Z,21.64
2018-05-06T07:09:54.444Z,21.71
2018-05-06T07:10:58.511Z,21.72
2018-05-06T07:11:54.855Z,21.76
2018-05-06T07:12:55.027Z,22.49
2018-05-06T07:13:57.025Z,22.86
2018-05-06T07:15:02.019Z,23.02
2018-05-06T07:15:57.013Z,23.29
2018-05-06T07:16:59.507Z,22.12
2018-05-06T07:17:57.516Z,21.79
2018-05-06T07:18:57.019Z,20.99
2018-05-06T07:19:58.022Z,21.90
2018-05-06T07:20:58.008Z,22.68
2018-05-06T07:21:56.477Z,22.50
2018-05-06T07:22:58.508Z,21.08
2018-05-06T07:24:00.539Z,21.82
2018-05-06T07:25:00.016Z,21.99
2018-05-06T07:25:59.028Z,21.19
2018-05-06T07:26:59.999Z,21.42
2018-05-06T07:27:57.727Z,22.27
2018-05-06T07:28:59.530Z,22.43
2018-05-06T07:30:04.009Z,22.50
2018-05-06T07:31:00.056Z,22.50
2018-05-06T07:31:58.757Z,22.72
2018-05-06T07:33:00.340Z,23.15
2018-05-06T07:33:58.924Z,22.06
2018-05-06T07:34:59.183Z,21.95
2018-05-06T07:35:59.993Z,22.62
2018-05-06T07:36:59.518Z,23.04
2018-05-06T07:38:03.541Z,23.92
2018-05-06T07:38:59.901Z,24.79
2018-05-06T07:40:00.116Z,23.70
2018-05-06T07:41:00.371Z,22.65
2018-05-06T07:42:07.047Z,22.07
2018-05-06T07:43:02.546Z,22.44
2018-05-06T07:44:01.795Z,22.43
2018-05-06T07:45:01.072Z,21.78
2018-05-06T07:46:02.234Z,22.60
2018-05-06T07:47:05.015Z,23.09
2018-05-06T07:48:03.014Z,23.01
2018-05-06T07:49:01.737Z,22.53
2018-05-06T07:50:03.533Z,22.23
2018-05-06T07:51:03.009Z,22.02
2018-05-06T07:52:04.015Z,22.27
2018-05-06T07:53:02.620Z,22.99
2018-05-06T07:54:04.517Z,23.08
2018-05-06T07:55:03.998Z,23.79
2018-05-06T07:56:03.965Z,24.39
2018-05-06T07:57:05.016Z,24.45
2018-05-06T07:58:03.608Z,23.90
2018-05-06T07:59:04.861Z,23.90
2018-05-06T08:00:04.997Z,23.40
2018-05-06T08:01:06.059Z,24.19
2018-05-06T08:02:06.013Z,24.77
2018-05-06T08:03:07.040Z,24.91
2018-05-06T08:04:04.648Z,25.15
2018-05-06T08:06:36.790Z,24.23
2018-05-06T08:07:38.524Z,25.24
2018-05-06T08:08:39.028Z,25.34
2018-05-06T08:09:40.022Z,25.44
2018-05-06T08:10:38.610Z,25.28
2018-05-06T08:11:39.525Z,24.27
2018-05-06T08:12:40.534Z,25.13
2018-05-06T08:13:39.299Z,25.50
2018-05-06T08:14:40.058Z,25.10
2018-05-06T08:15:40.029Z,25.20
2018-05-06T08:16:40.560Z,24.83
2018-05-06T08:17:42.526Z,25.01
2018-05-06T08:18:41.549Z,24.20
2018-05-06T08:19:39.137Z,22.78
2018-05-06T08:20:39.362Z,22.62
2018-05-06T08:21:41.026Z,22.25
2018-05-06T08:22:41.538Z,22.35
2018-05-06T08:23:41.539Z,22.99
2018-05-06T08:24:41.528Z,22.90
2018-05-06T08:25:43.023Z,22.39
2018-05-06T08:26:40.497Z,22.84
2018-05-06T08:27:45.516Z,23.22
2018-05-06T08:28:41.879Z,23.52
2018-05-06T08:29:45.037Z,24.42
2018-05-06T08:30:41.293Z,24.80
2018-05-06T08:31:43.024Z,25.16
2018-05-06T08:32:43.528Z,24.34
2018-05-06T08:33:41.780Z,24.19
2018-05-06T08:34:42.527Z,23.71
2018-05-06T08:35:47.025Z,24.92
2018-05-06T08:36:46.022Z,24.34
2018-05-06T08:37:44.022Z,24.34
2018-05-06T08:38:42.736Z,24.14
2018-05-06T08:39:46.526Z,23.67
2018-05-06T08:40:43.122Z,23.62
2018-05-06T08:41:43.673Z,23.32
2018-05-06T08:42:48.597Z,23.38
2018-05-06T08:43:43.737Z,23.43
2018-05-06T08:44:46.039Z,23.14
2018-05-06T08:45:46.030Z,23.31
2018-05-06T08:46:52.027Z,23.49
2018-05-06T08:47:44.496Z,23.39
2018-05-06T08:48:46.525Z,23.27
2018-05-06T08:49:44.913Z,23.80
2018-05-06T08:50:47.066Z,23.67
2018-05-06T08:51:48.071Z,23.79
2018-05-06T08:52:45.431Z,23.15
2018-05-06T08:53:47.489Z,23.27
2018-05-06T08:54:45.841Z,23.39
2018-05-06T08:55:47.088Z,23.49
2018-05-06T08:56:48.978Z,23.04
2018-05-06T08:57:48.029Z,23.32
2018-05-06T08:58:48.603Z,23.42
2018-05-06T08:59:46.779Z,23.32
2018-05-06T09:00:48.486Z,23.20
2018-05-06T09:01:47.101Z,23.14
2018-05-06T09:02:51.201Z,23.27
2018-05-06T09:03:49.565Z,23.49
2018-05-06T09:04:47.799Z,24.22
2018-05-06T09:05:49.032Z,22.93
2018-05-06T09:06:50.030Z,23.11
2018-05-06T09:07:50.090Z,23.09
2018-05-06T09:08:52.533Z,23.20
2018-05-06T09:09:48.936Z,23.53
2018-05-06T09:10:51.060Z,23.22
2018-05-06T09:11:53.915Z,22.87
2018-05-06T09:12:51.078Z,22.92
2018-05-06T09:13:50.574Z,23.43
2018-05-06T09:14:51.559Z,23.02
2018-05-06T09:15:51.543Z,23.24
2018-05-06T09:16:50.984Z,23.83
2018-05-06T09:17:52.034Z,23.83
2018-05-06T09:18:54.531Z,23.75
2018-05-06T09:19:52.531Z,23.45
2018-05-06T09:20:52.535Z,23.52
2018-05-06T09:21:51.042Z,23.08
2018-05-06T09:22:53.050Z,23.43
2018-05-06T09:23:51.378Z,23.52
2018-05-06T09:24:53.563Z,23.97
2018-05-06T09:25:51.798Z,23.75
2018-05-06T09:26:54.000Z,23.60
2018-05-06T09:27:54.030Z,23.62
2018-05-06T09:28:52.402Z,24.50
2018-05-06T09:29:56.532Z,24.60
2018-05-06T09:30:52.784Z,24.52
2018-05-06T09:31:54.546Z,23.45
2018-05-06T09:32:53.140Z,23.22
2018-05-06T09:33:55.026Z,22.71
2018-05-06T09:34:53.517Z,22.94
2018-05-06T09:35:53.766Z,23.39
2018-05-06T09:36:54.880Z,24.08
2018-05-06T09:37:54.140Z,24.23
2018-05-06T09:38:54.254Z,23.89
2018-05-06T09:39:54.510Z,23.98
2018-05-06T09:40:54.714Z,24.49
2018-05-06T09:41:58.493Z,25.30
2018-05-06T09:42:59.034Z,25.38
2018-05-06T09:43:56.289Z,24.95
2018-05-06T09:44:55.396Z,24.14
2018-05-06T09:45:57.530Z,24.49
2018-05-06T09:46:58.527Z,24.64
2018-05-06T09:47:59.528Z,24.49
2018-05-06T09:48:56.127Z,24.87
2018-05-06T09:49:57.482Z,24.69
2018-05-06T09:50:58.532Z,24.52
2018-05-06T09:51:58.542Z,24.80
2018-05-06T09:52:58.535Z,25.50
2018-05-06T09:53:59.049Z,25.62
2018-05-06T09:54:59.990Z,25.91
2018-05-06T09:55:57.484Z,25.15
2018-05-06T09:56:59.552Z,24.75
2018-05-06T09:57:57.932Z,24.44
2018-05-06T09:59:01.518Z,24.63
2018-05-06T10:00:00.081Z,24.57
2018-05-06T10:00:58.458Z,24.10
2018-05-06T10:02:07.491Z,24.02
2018-05-06T10:02:59.493Z,24.07
2018-05-06T10:03:58.991Z,24.49
2018-05-06T10:05:03.996Z,24.88
2018-05-06T10:05:59.533Z,24.73
2018-05-06T10:07:00.028Z,24.83
2018-05-06T10:08:03.536Z,24.79
2018-05-06T10:08:59.875Z,24.32
2018-05-06T10:10:00.111Z,24.17
2018-05-06T10:11:02.005Z,24.10
2018-05-06T10:12:06.994Z,24.20
2018-05-06T10:13:02.538Z,24.49
2018-05-06T10:14:00.875Z,24.56
2018-05-06T10:15:01.124Z,24.77
2018-05-06T10:16:04.074Z,25.47
2018-05-06T10:17:02.474Z,25.65
2018-05-06T10:18:01.602Z,24.38
2018-05-06T10:19:04.543Z,25.02
2018-05-06T10:20:02.072Z,25.07
2018-05-06T10:21:02.203Z,24.82
2018-05-06T10:22:03.984Z,24.54
2018-05-06T10:23:02.618Z,25.25
2018-05-06T10:24:06.546Z,24.82
2018-05-06T10:25:04.541Z,24.64
2018-05-06T10:26:06.047Z,24.41
2018-05-06T10:27:05.033Z,24.59
2018-05-06T10:28:08.574Z,24.45
2018-05-06T10:29:05.558Z,24.26
2018-05-06T10:30:06.000Z,24.19
2018-05-06T10:31:04.245Z,24.14
2018-05-06T10:32:06.038Z,24.07
2018-05-06T10:33:04.639Z,24.37
2018-05-06T10:34:06.491Z,24.38
2018-05-06T10:35:05.113Z,24.95
2018-05-06T10:36:07.037Z,25.35
2018-05-06T10:37:09.014Z,25.02
2018-05-06T10:38:06.588Z,25.27
2018-05-06T10:39:07.022Z,24.37
2018-05-06T10:40:07.002Z,24.91
2018-05-06T10:41:08.042Z,25.10
2018-05-06T10:42:08.538Z,25.24
2018-05-06T10:43:08.584Z,25.16
2018-05-06T10:44:07.081Z,25.19
2018-05-06T10:45:09.063Z,25.27
2018-05-06T10:46:08.004Z,25.20
2018-05-06T10:47:09.570Z,25.34
2018-05-06T10:48:07.773Z,25.35
2018-05-06T10:49:10.012Z,25.28
2018-05-06T10:50:11.000Z,25.59
2018-05-06T10:51:08.991Z,25.71
2018-05-06T10:52:20.540Z,24.80
2018-05-06T10:53:08.754Z,24.22
2018-05-06T10:54:12.576Z,24.20
2018-05-06T10:55:11.041Z,24.12
2018-05-06T10:56:11.042Z,24.14
2018-05-06T10:57:11.532Z,24.83
2018-05-06T10:58:11.553Z,24.73
2018-05-06T10:59:11.041Z,24.95
2018-05-06T11:00:12.039Z,24.92
2018-05-06T11:01:12.687Z,24.56
2018-05-06T11:02:11.259Z,24.24
2018-05-06T11:03:11.014Z,24.19
2018-05-06T11:04:13.037Z,24.45
2018-05-06T11:05:14.048Z,24.19
2018-05-06T11:06:11.505Z,24.52
2018-05-06T11:07:13.539Z,24.85
2018-05-06T11:08:13.587Z,24.56
2018-05-06T11:09:13.543Z,24.29
2018-05-06T11:10:12.291Z,24.44
2018-05-06T11:11:12.530Z,24.79
2018-05-06T11:12:12.691Z,24.98
2018-05-06T11:13:15.615Z,25.02
2018-05-06T11:14:14.538Z,24.54
2018-05-06T11:15:15.047Z,24.32
2018-05-06T11:16:13.512Z,24.24
2018-05-06T11:17:15.541Z,24.60
2018-05-06T11:18:13.935Z,24.20
2018-05-06T11:19:15.007Z,24.61
2018-05-06T11:20:14.257Z,25.16
2018-05-06T11:21:16.052Z,24.91
2018-05-06T11:22:14.650Z,24.92
2018-05-06T11:23:14.905Z,24.56
2018-05-06T11:24:18.538Z,24.91
2018-05-06T11:25:18.017Z,25.39
2018-05-06T11:26:17.095Z,24.83
2018-05-06T11:27:16.554Z,24.77
2018-05-06T11:28:16.665Z,24.45
2018-05-06T11:29:15.887Z,24.37
2018-05-06T11:30:16.116Z,24.42
2018-05-06T11:31:16.396Z,24.26
2018-05-06T11:32:24.573Z,24.52
2018-05-06T11:33:20.603Z,24.35
2018-05-06T11:34:17.077Z,24.14
2018-05-06T11:35:17.200Z,24.41
2018-05-06T11:36:17.443Z,24.22
2018-05-06T11:37:19.566Z,24.10
2018-05-06T11:38:19.084Z,24.08
2018-05-06T11:39:17.991Z,24.01
2018-05-06T11:40:18.110Z,23.79
2018-05-06T11:41:20.045Z,23.57
2018-05-06T11:42:20.039Z,23.90
2018-05-06T11:43:21.564Z,24.19
2018-05-06T11:44:20.542Z,24.61
2018-05-06T11:45:25.038Z,24.54
2018-05-06T11:46:25.087Z,24.22
2018-05-06T11:47:25.546Z,23.71
2018-05-06T11:48:25.542Z,23.95
2018-05-06T11:49:22.129Z,23.83
2018-05-06T11:50:20.232Z,23.89
2018-05-06T11:51:22.048Z,23.52
2018-05-06T11:52:20.651Z,23.35
2018-05-06T11:53:20.885Z,23.46
2018-05-06T11:54:23.043Z,23.80
2018-05-06T11:55:21.256Z,23.47
2018-05-06T11:56:23.082Z,23.38
2018-05-06T11:57:23.539Z,23.05
2018-05-06T11:58:23.537Z,22.89
2018-05-06T11:59:23.004Z,22.87
2018-05-06T12:00:26.083Z,23.20
2018-05-06T12:01:24.081Z,23.14
2018-05-06T12:02:22.655Z,22.93
2018-05-06T12:03:22.907Z,22.78
2018-05-06T12:04:23.078Z,22.80
2018-05-06T12:05:24.821Z,22.97
2018-05-06T12:06:23.434Z,22.89
2018-05-06T12:07:23.667Z,23.11
2018-05-06T12:08:23.900Z,23.32
2018-05-06T12:09:25.143Z,23.29
2018-05-06T12:10:26.048Z,23.90
2018-05-06T12:11:26.532Z,23.80
2018-05-06T12:12:26.054Z,23.89
2018-05-06T12:13:32.544Z,24.38
2018-05-06T12:14:24.874Z,24.47
2018-05-06T12:15:32.044Z,24.64
2018-05-06T12:16:27.999Z,24.52
2018-05-06T12:17:26.484Z,24.16
2018-05-06T12:18:29.544Z,24.05
2018-05-06T12:19:33.539Z,23.85
2018-05-06T12:20:28.100Z,23.64
2018-05-06T12:21:26.313Z,23.83
2018-05-06T12:22:34.039Z,23.79
2018-05-06T12:23:30.541Z,23.67
2018-05-06T12:24:30.544Z,23.52
2018-05-06T12:25:34.553Z,23.76
2018-05-06T12:26:30.091Z,23.76
2018-05-06T12:27:29.255Z,23.72
2018-05-06T12:28:27.639Z,23.24
2018-05-06T12:29:29.576Z,23.49
2018-05-06T12:30:27.934Z,23.50
2018-05-06T12:31:30.060Z,23.32
2018-05-06T12:32:28.406Z,23.35
2018-05-06T12:33:44.624Z,23.29
2018-05-06T12:34:29.810Z,23.23
2018-05-06T12:35:28.950Z,23.09
2018-05-06T12:36:31.043Z,23.01
2018-05-06T12:37:35.057Z,23.31
2018-05-06T12:38:29.639Z,23.31
2018-05-06T12:39:29.866Z,23.20
2018-05-06T12:40:34.051Z,23.35
2018-05-06T12:41:32.056Z,23.11
2018-05-06T12:42:33.052Z,23.19
2018-05-06T12:43:30.688Z,23.26
2018-05-06T12:44:30.752Z,23.35
2018-05-06T12:45:31.000Z,23.45
2018-05-06T12:46:33.052Z,23.38
2018-05-06T12:47:31.295Z,23.08
2018-05-06T12:48:32.453Z,23.14
2018-05-06T12:49:31.613Z,23.29
2018-05-06T12:50:31.820Z,23.29
2018-05-06T12:51:31.924Z,23.35
2018-05-06T12:52:32.151Z,23.34
2018-05-06T12:53:32.363Z,23.38
2018-05-06T12:54:34.550Z,23.19
2018-05-06T12:55:32.771Z,23.22
2018-05-06T12:56:33.003Z,23.23
2018-05-06T12:57:35.075Z,23.14
2018-05-06T12:58:33.409Z,23.20